sensor_id;sensor_type;location;lat;lon;timestamp;pressure;altitude;pressure_sealevel;temperature;humidity
77047;BME280;65977;56.380;44.022;2023-02-02T00:01:11;100338.34;;;0.76;56.86
77047;BME280;65977;56.380;44.022;2023-02-02T00:03:37;100340.34;;;0.71;57.23
77047;BME280;65977;56.380;44.022;2023-02-02T00:06:04;100339.41;;;0.72;57.09
77047;BME280;65977;56.380;44.022;2023-02-02T00:08:30;100336.19;;;0.67;56.99
77047;BME280;65977;56.380;44.022;2023-02-02T00:10:55;100336.03;;;0.70;57.14
77047;BME280;65977;56.380;44.022;2023-02-02T00:13:21;100329.97;;;0.69;57.32
77047;BME280;65977;56.380;44.022;2023-02-02T00:15:47;100325.63;;;0.70;57.68
77047;BME280;65977;56.380;44.022;2023-02-02T00:18:12;100324.88;;;0.68;57.02
77047;BME280;65977;56.380;44.022;2023-02-02T00:20:38;100326.47;;;0.70;57.23
77047;BME280;65977;56.380;44.022;2023-02-02T00:23:04;100328.22;;;0.70;57.25
77047;BME280;65977;56.380;44.022;2023-02-02T00:25:30;100332.81;;;0.64;57.38
77047;BME280;65977;56.380;44.022;2023-02-02T00:27:56;100325.63;;;0.52;57.86
77047;BME280;65977;56.380;44.022;2023-02-02T00:30:22;100322.25;;;0.50;57.54
77047;BME280;65977;56.380;44.022;2023-02-02T00:32:48;100329.97;;;0.52;57.81
77047;BME280;65977;56.380;44.022;2023-02-02T00:35:15;100325.91;;;0.46;57.71
77047;BME280;65977;56.380;44.022;2023-02-02T00:37:40;100326.66;;;0.48;57.76
77047;BME280;65977;56.380;44.022;2023-02-02T00:40:07;100312.13;;;0.44;57.69
77047;BME280;65977;56.380;44.022;2023-02-02T00:42:33;100311.00;;;0.50;57.64
77047;BME280;65977;56.380;44.022;2023-02-02T00:44:59;100314.59;;;0.47;57.67
77047;BME280;65977;56.380;44.022;2023-02-02T00:47:47;100304.88;;;0.51;57.53
77047;BME280;65977;56.380;44.022;2023-02-02T00:50:18;100308.19;;;0.54;57.78
77047;BME280;65977;56.380;44.022;2023-02-02T00:52:47;100310.78;;;0.54;58.00
77047;BME280;65977;56.380;44.022;2023-02-02T00:55:14;100307.34;;;0.54;57.86
77047;BME280;65977;56.380;44.022;2023-02-02T00:57:40;100303.22;;;0.50;57.93
77047;BME280;65977;56.380;44.022;2023-02-02T01:00:07;100299.69;;;0.51;58.33
77047;BME280;65977;56.380;44.022;2023-02-02T01:02:36;100299.84;;;0.48;58.39
77047;BME280;65977;56.380;44.022;2023-02-02T01:05:02;100310.38;;;0.45;58.11
77047;BME280;65977;56.380;44.022;2023-02-02T01:07:28;100300.00;;;0.45;58.31
77047;BME280;65977;56.380;44.022;2023-02-02T01:09:54;100297.81;;;0.36;58.73
77047;BME280;65977;56.380;44.022;2023-02-02T01:12:20;100301.63;;;0.29;58.49
77047;BME280;65977;56.380;44.022;2023-02-02T01:14:45;100303.75;;;0.21;59.52
77047;BME280;65977;56.380;44.022;2023-02-02T01:17:12;100308.81;;;0.24;58.84
77047;BME280;65977;56.380;44.022;2023-02-02T01:19:38;100318.66;;;0.17;59.24
77047;BME280;65977;56.380;44.022;2023-02-02T01:22:04;100305.81;;;0.14;59.31
77047;BME280;65977;56.380;44.022;2023-02-02T01:24:29;100314.50;;;0.13;59.38
77047;BME280;65977;56.380;44.022;2023-02-02T01:26:55;100319.00;;;0.10;59.79
77047;BME280;65977;56.380;44.022;2023-02-02T01:29:21;100313.72;;;0.11;60.37
77047;BME280;65977;56.380;44.022;2023-02-02T01:31:47;100312.97;;;0.09;60.42
77047;BME280;65977;56.380;44.022;2023-02-02T01:34:12;100313.81;;;0.10;59.64
77047;BME280;65977;56.380;44.022;2023-02-02T01:36:38;100311.91;;;0.13;59.96
77047;BME280;65977;56.380;44.022;2023-02-02T01:39:04;100316.19;;;0.14;59.78
77047;BME280;65977;56.380;44.022;2023-02-02T01:41:29;100314.44;;;0.15;59.60
77047;BME280;65977;56.380;44.022;2023-02-02T01:43:58;100326.44;;;0.17;59.99
77047;BME280;65977;56.380;44.022;2023-02-02T01:46:32;100318.66;;;0.17;60.19
77047;BME280;65977;56.380;44.022;2023-02-02T01:49:15;100315.28;;;0.15;60.52
77047;BME280;65977;56.380;44.022;2023-02-02T01:51:52;100316.91;;;0.18;60.33
77047;BME280;65977;56.380;44.022;2023-02-02T01:54:40;100313.38;;;0.19;60.12
77047;BME280;65977;56.380;44.022;2023-02-02T01:57:13;100316.91;;;0.18;60.53
77047;BME280;65977;56.380;44.022;2023-02-02T01:59:40;100316.75;;;0.21;60.18
77047;BME280;65977;56.380;44.022;2023-02-02T02:02:09;100316.91;;;0.18;60.27
77047;BME280;65977;56.380;44.022;2023-02-02T02:04:35;100310.22;;;0.12;60.64
77047;BME280;65977;56.380;44.022;2023-02-02T02:07:02;100313.47;;;0.17;60.06
77047;BME280;65977;56.380;44.022;2023-02-02T02:09:29;100309.88;;;0.20;60.06
77047;BME280;65977;56.380;44.022;2023-02-02T02:11:55;100311.84;;;0.15;60.75
77047;BME280;65977;56.380;44.022;2023-02-02T02:14:21;100317.09;;;0.13;61.06
77047;BME280;65977;56.380;44.022;2023-02-02T02:17:50;100307.56;;;0.14;60.95
77047;BME280;65977;56.380;44.022;2023-02-02T02:40:33;100330.66;;;0.20;61.21
77047;BME280;65977;56.380;44.022;2023-02-02T02:43:05;100332.63;;;0.15;61.14
77047;BME280;65977;56.380;44.022;2023-02-02T02:45:32;100315.44;;;0.12;60.74
77047;BME280;65977;56.380;44.022;2023-02-02T02:47:58;100319.50;;;0.18;61.02
77047;BME280;65977;56.380;44.022;2023-02-02T02:50:24;100314.44;;;0.15;60.66
77047;BME280;65977;56.380;44.022;2023-02-02T02:53:06;100314.38;;;0.16;60.66
77047;BME280;65977;56.380;44.022;2023-02-02T02:55:40;100316.28;;;0.13;60.67
77047;BME280;65977;56.380;44.022;2023-02-02T02:58:13;100325.50;;;0.18;60.64
77047;BME280;65977;56.380;44.022;2023-02-02T03:03:41;100325.16;;;0.26;60.60
77047;BME280;65977;56.380;44.022;2023-02-02T03:06:25;100314.84;;;0.24;60.39
77047;BME280;65977;56.380;44.022;2023-02-02T03:08:58;100330.00;;;0.33;60.18
77047;BME280;65977;56.380;44.022;2023-02-02T03:11:25;100325.59;;;0.35;60.05
77047;BME280;65977;56.380;44.022;2023-02-02T03:13:51;100328.00;;;0.38;60.27
77047;BME280;65977;56.380;44.022;2023-02-02T03:16:17;100328.81;;;0.40;59.72
77047;BME280;65977;56.380;44.022;2023-02-02T03:18:43;100325.38;;;0.40;59.92
77047;BME280;65977;56.380;44.022;2023-02-02T03:21:09;100312.38;;;0.40;60.14
77047;BME280;65977;56.380;44.022;2023-02-02T03:23:34;100326.00;;;0.45;59.87
77047;BME280;65977;56.380;44.022;2023-02-02T03:26:00;100319.84;;;0.46;60.03
77047;BME280;65977;56.380;44.022;2023-02-02T03:28:27;100314.75;;;0.44;59.51
77047;BME280;65977;56.380;44.022;2023-02-02T03:30:53;100314.47;;;0.50;59.57
77047;BME280;65977;56.380;44.022;2023-02-02T03:33:20;100316.13;;;0.51;59.76
77047;BME280;65977;56.380;44.022;2023-02-02T03:35:46;100310.16;;;0.49;59.41
77047;BME280;65977;56.380;44.022;2023-02-02T03:38:14;100300.03;;;0.43;59.72
77047;BME280;65977;56.380;44.022;2023-02-02T03:40:40;100309.41;;;0.47;59.49
77047;BME280;65977;56.380;44.022;2023-02-02T03:43:05;100312.84;;;0.48;59.68
77047;BME280;65977;56.380;44.022;2023-02-02T03:45:31;100315.59;;;0.45;59.25
77047;BME280;65977;56.380;44.022;2023-02-02T03:48:01;100314.81;;;0.43;59.91
77047;BME280;65977;56.380;44.022;2023-02-02T03:50:27;100323.53;;;0.42;59.92
77047;BME280;65977;56.380;44.022;2023-02-02T03:52:53;100317.63;;;0.38;59.48
77047;BME280;65977;56.380;44.022;2023-02-02T03:55:19;100316.72;;;0.39;59.26
77047;BME280;65977;56.380;44.022;2023-02-02T03:57:45;100328.00;;;0.38;59.30
77047;BME280;65977;56.380;44.022;2023-02-02T04:00:11;100328.94;;;0.37;59.81
77047;BME280;65977;56.380;44.022;2023-02-02T04:02:37;100324.66;;;0.36;59.73
77047;BME280;65977;56.380;44.022;2023-02-02T04:05:03;100319.69;;;0.32;59.73
77047;BME280;65977;56.380;44.022;2023-02-02T04:07:29;100331.59;;;0.36;59.35
77047;BME280;65977;56.380;44.022;2023-02-02T04:09:55;100333.44;;;0.34;59.87
77047;BME280;65977;56.380;44.022;2023-02-02T04:12:20;100328.31;;;0.32;59.46
77047;BME280;65977;56.380;44.022;2023-02-02T04:14:46;100325.94;;;0.28;59.33
77047;BME280;65977;56.380;44.022;2023-02-02T04:17:11;100320.53;;;0.14;58.89
77047;BME280;65977;56.380;44.022;2023-02-02T04:19:37;100324.88;;;0.13;58.99
77047;BME280;65977;56.380;44.022;2023-02-02T04:22:03;100324.47;;;0.04;58.82
77047;BME280;65977;56.380;44.022;2023-02-02T04:24:29;100328.41;;;-0.07;59.43
77047;BME280;65977;56.380;44.022;2023-02-02T04:26:54;100326.72;;;-0.08;59.33
77047;BME280;65977;56.380;44.022;2023-02-02T04:29:20;100332.22;;;-0.14;59.15
77047;BME280;65977;56.380;44.022;2023-02-02T04:31:45;100325.13;;;-0.29;59.25
77047;BME280;65977;56.380;44.022;2023-02-02T04:34:11;100337.31;;;-0.31;60.18
77047;BME280;65977;56.380;44.022;2023-02-02T04:36:37;100338.69;;;-0.42;60.42
77047;BME280;65977;56.380;44.022;2023-02-02T04:39:04;100330.16;;;-0.44;60.30
77047;BME280;65977;56.380;44.022;2023-02-02T04:41:29;100333.78;;;-0.48;60.36
77047;BME280;65977;56.380;44.022;2023-02-02T04:43:55;100313.28;;;-0.54;60.71
77047;BME280;65977;56.380;44.022;2023-02-02T04:46:21;100317.25;;;-0.46;60.37
77047;BME280;65977;56.380;44.022;2023-02-02T04:48:47;100340.25;;;-0.58;59.94
77047;BME280;65977;56.380;44.022;2023-02-02T04:51:14;100323.75;;;-0.56;60.04
77047;BME280;65977;56.380;44.022;2023-02-02T04:53:40;100323.75;;;-0.56;60.25
77047;BME280;65977;56.380;44.022;2023-02-02T04:56:15;100318.63;;;-0.57;60.31
77047;BME280;65977;56.380;44.022;2023-02-02T04:58:42;100326.41;;;-0.57;60.69
77047;BME280;65977;56.380;44.022;2023-02-02T05:01:12;100322.31;;;-0.63;60.44
77047;BME280;65977;56.380;44.022;2023-02-02T05:03:38;100332.03;;;-0.68;60.60
77047;BME280;65977;56.380;44.022;2023-02-02T05:06:04;100330.75;;;-0.78;60.99
77047;BME280;65977;56.380;44.022;2023-02-02T05:08:30;100338.41;;;-0.75;60.75
77047;BME280;65977;56.380;44.022;2023-02-02T05:10:56;100343.28;;;-0.88;61.17
77047;BME280;65977;56.380;44.022;2023-02-02T05:13:22;100352.09;;;-0.92;61.70
77047;BME280;65977;56.380;44.022;2023-02-02T05:15:47;100334.53;;;-0.85;61.69
77047;BME280;65977;56.380;44.022;2023-02-02T05:18:13;100336.06;;;-0.81;62.10
77047;BME280;65977;56.380;44.022;2023-02-02T05:20:39;100341.47;;;-0.86;61.77
77047;BME280;65977;56.380;44.022;2023-02-02T05:23:05;100345.22;;;-0.73;60.96
77047;BME280;65977;56.380;44.022;2023-02-02T05:25:30;100336.34;;;-0.67;60.99
77047;BME280;65977;56.380;44.022;2023-02-02T05:27:56;100351.13;;;-0.69;60.69
77047;BME280;65977;56.380;44.022;2023-02-02T05:30:22;100324.22;;;-0.67;60.72
77047;BME280;65977;56.380;44.022;2023-02-02T05:32:47;100336.97;;;-0.62;61.11
77047;BME280;65977;56.380;44.022;2023-02-02T05:35:13;100332.44;;;-0.57;61.08
77047;BME280;65977;56.380;44.022;2023-02-02T05:37:41;100330.88;;;-0.61;60.17
77047;BME280;65977;56.380;44.022;2023-02-02T05:40:07;100350.47;;;-0.54;60.86
77047;BME280;65977;56.380;44.022;2023-02-02T05:42:33;100335.66;;;-0.52;60.25
77047;BME280;65977;56.380;44.022;2023-02-02T05:44:59;100329.63;;;-0.52;61.01
77047;BME280;65977;56.380;44.022;2023-02-02T05:47:25;100324.34;;;-0.70;60.40
77047;BME280;65977;56.380;44.022;2023-02-02T05:49:51;100331.97;;;-0.46;60.86
77047;BME280;65977;56.380;44.022;2023-02-02T05:52:18;100327.22;;;-0.37;61.01
77047;BME280;65977;56.380;44.022;2023-02-02T05:54:45;100337.03;;;-0.25;60.73
77047;BME280;65977;56.380;44.022;2023-02-02T05:57:10;100331.56;;;-0.19;60.23
77047;BME280;65977;56.380;44.022;2023-02-02T05:59:36;100336.00;;;-0.02;60.11
77047;BME280;65977;56.380;44.022;2023-02-02T06:02:02;100345.34;;;0.02;59.39
77047;BME280;65977;56.380;44.022;2023-02-02T06:04:27;100327.56;;;0.12;59.15
77047;BME280;65977;56.380;44.022;2023-02-02T06:06:53;100345.94;;;0.26;58.70
77047;BME280;65977;56.380;44.022;2023-02-02T06:09:18;100349.03;;;0.34;58.63
77047;BME280;65977;56.380;44.022;2023-02-02T06:11:44;100349.28;;;0.46;58.80
77047;BME280;65977;56.380;44.022;2023-02-02T06:14:10;100361.88;;;0.55;58.28
77047;BME280;65977;56.380;44.022;2023-02-02T06:16:36;100360.94;;;0.56;57.50
77047;BME280;65977;56.380;44.022;2023-02-02T06:19:02;100357.97;;;0.64;57.76
77047;BME280;65977;56.380;44.022;2023-02-02T06:21:27;100356.78;;;0.71;57.74
77047;BME280;65977;56.380;44.022;2023-02-02T06:23:56;100364.13;;;0.80;57.33
77047;BME280;65977;56.380;44.022;2023-02-02T06:26:23;100368.19;;;0.86;56.94
77047;BME280;65977;56.380;44.022;2023-02-02T06:28:51;100361.00;;;0.91;56.86
77047;BME280;65977;56.380;44.022;2023-02-02T06:31:18;100359.63;;;1.01;56.54
77047;BME280;65977;56.380;44.022;2023-02-02T06:33:45;100360.09;;;1.09;57.00
77047;BME280;65977;56.380;44.022;2023-02-02T06:36:11;100351.44;;;1.08;56.61
77047;BME280;65977;56.380;44.022;2023-02-02T06:38:37;100359.47;;;1.21;56.08
77047;BME280;65977;56.380;44.022;2023-02-02T06:41:02;100355.34;;;1.17;55.54
77047;BME280;65977;56.380;44.022;2023-02-02T06:43:29;100354.28;;;1.21;55.56
77047;BME280;65977;56.380;44.022;2023-02-02T06:45:58;100353.50;;;1.19;55.24
77047;BME280;65977;56.380;44.022;2023-02-02T06:48:25;100361.53;;;1.14;55.25
77047;BME280;65977;56.380;44.022;2023-02-02T06:50:51;100356.13;;;1.19;55.73
77047;BME280;65977;56.380;44.022;2023-02-02T06:53:18;100358.25;;;1.11;56.26
77047;BME280;65977;56.380;44.022;2023-02-02T06:56:04;100356.72;;;1.24;55.74
77047;BME280;65977;56.380;44.022;2023-02-02T06:58:30;100369.50;;;1.28;55.42
77047;BME280;65977;56.380;44.022;2023-02-02T07:01:04;100357.00;;;1.35;55.41
77047;BME280;65977;56.380;44.022;2023-02-02T07:03:31;100359.81;;;1.48;55.42
77047;BME280;65977;56.380;44.022;2023-02-02T07:05:57;100353.22;;;1.58;54.90
77047;BME280;65977;56.380;44.022;2023-02-02T07:08:23;100359.72;;;1.66;54.99
77047;BME280;65977;56.380;44.022;2023-02-02T07:10:48;100354.09;;;1.74;54.93
77047;BME280;65977;56.380;44.022;2023-02-02T07:13:14;100349.16;;;1.69;54.27
77047;BME280;65977;56.380;44.022;2023-02-02T07:15:40;100354.09;;;1.74;53.74
77047;BME280;65977;56.380;44.022;2023-02-02T07:18:06;100354.69;;;1.79;54.38
77047;BME280;65977;56.380;44.022;2023-02-02T07:20:32;100355.38;;;1.82;54.25
77047;BME280;65977;56.380;44.022;2023-02-02T07:22:57;100356.84;;;1.88;54.43
77047;BME280;65977;56.380;44.022;2023-02-02T07:25:23;100361.44;;;1.83;53.76
77047;BME280;65977;56.380;44.022;2023-02-02T07:27:53;100358.06;;;1.81;53.89
77047;BME280;65977;56.380;44.022;2023-02-02T07:30:19;100365.66;;;1.85;54.36
77047;BME280;65977;56.380;44.022;2023-02-02T07:32:46;100353.28;;;1.89;54.12
77047;BME280;65977;56.380;44.022;2023-02-02T07:35:12;100353.63;;;1.83;53.24
77047;BME280;65977;56.380;44.022;2023-02-02T07:37:38;100364.28;;;1.78;53.52
77047;BME280;65977;56.380;44.022;2023-02-02T07:40:04;100360.66;;;1.81;53.63
77047;BME280;65977;56.380;44.022;2023-02-02T07:42:30;100372.88;;;1.80;53.97
77047;BME280;65977;56.380;44.022;2023-02-02T07:44:55;100365.88;;;1.81;54.38
77047;BME280;65977;56.380;44.022;2023-02-02T07:47:21;100370.28;;;1.80;54.24
77047;BME280;65977;56.380;44.022;2023-02-02T07:49:47;100364.22;;;1.80;53.91
77047;BME280;65977;56.380;44.022;2023-02-02T07:52:12;100370.94;;;1.84;53.92
77047;BME280;65977;56.380;44.022;2023-02-02T07:54:40;100355.38;;;1.82;53.96
77047;BME280;65977;56.380;44.022;2023-02-02T07:57:05;100352.22;;;1.93;53.79
77047;BME280;65977;56.380;44.022;2023-02-02T07:59:31;100369.63;;;2.08;53.89
77047;BME280;65977;56.380;44.022;2023-02-02T08:01:57;100369.03;;;2.19;53.77
77047;BME280;65977;56.380;44.022;2023-02-02T08:04:23;100371.84;;;2.31;53.21
77047;BME280;65977;56.380;44.022;2023-02-02T08:06:48;100384.09;;;2.29;52.88
77047;BME280;65977;56.380;44.022;2023-02-02T08:09:14;100380.16;;;2.38;52.81
77047;BME280;65977;56.380;44.022;2023-02-02T08:11:40;100367.13;;;2.38;52.82
77047;BME280;65977;56.380;44.022;2023-02-02T08:14:06;100367.38;;;2.33;52.97
77047;BME280;65977;56.380;44.022;2023-02-02T08:16:32;100369.63;;;2.39;52.92
77047;BME280;65977;56.380;44.022;2023-02-02T08:18:58;100377.41;;;2.41;53.06
77047;BME280;65977;56.380;44.022;2023-02-02T08:21:24;100374.44;;;2.31;52.92
77047;BME280;65977;56.380;44.022;2023-02-02T08:23:51;100388.16;;;2.35;52.76
77047;BME280;65977;56.380;44.022;2023-02-02T08:26:20;100379.47;;;2.34;53.00
77047;BME280;65977;56.380;44.022;2023-02-02T08:28:50;100373.59;;;2.46;52.89
77047;BME280;65977;56.380;44.022;2023-02-02T08:31:19;100380.47;;;2.79;52.71
77047;BME280;65977;56.380;44.022;2023-02-02T08:33:46;100386.94;;;2.87;52.10
77047;BME280;65977;56.380;44.022;2023-02-02T08:36:13;100377.56;;;2.99;51.80
77047;BME280;65977;56.380;44.022;2023-02-02T08:38:39;100379.91;;;3.03;52.27
77047;BME280;65977;56.380;44.022;2023-02-02T08:41:06;100370.50;;;3.01;51.94
77047;BME280;65977;56.380;44.022;2023-02-02T08:43:32;100381.47;;;2.92;51.77
77047;BME280;65977;56.380;44.022;2023-02-02T08:45:58;100376.09;;;2.79;51.80
77047;BME280;65977;56.380;44.022;2023-02-02T08:48:24;100368.72;;;2.72;52.20
77047;BME280;65977;56.380;44.022;2023-02-02T08:50:54;100377.63;;;2.68;51.65
77047;BME280;65977;56.380;44.022;2023-02-02T08:53:21;100372.31;;;2.69;51.81
77047;BME280;65977;56.380;44.022;2023-02-02T08:55:47;100367.28;;;2.66;52.08
77047;BME280;65977;56.380;44.022;2023-02-02T08:58:13;100383.16;;;2.77;51.53
77047;BME280;65977;56.380;44.022;2023-02-02T09:00:39;100381.13;;;2.82;51.67
77047;BME280;65977;56.380;44.022;2023-02-02T09:03:05;100386.94;;;2.87;52.23
77047;BME280;65977;56.380;44.022;2023-02-02T09:05:31;100392.78;;;2.77;51.97
77047;BME280;65977;56.380;44.022;2023-02-02T09:07:57;100390.38;;;2.72;52.28
77047;BME280;65977;56.380;44.022;2023-02-02T09:10:23;100391.06;;;2.76;52.39
77047;BME280;65977;56.380;44.022;2023-02-02T09:12:49;100387.19;;;2.83;52.51
77047;BME280;65977;56.380;44.022;2023-02-02T09:15:15;100394.25;;;2.96;52.23
77047;BME280;65977;56.380;44.022;2023-02-02T09:17:40;100398.09;;;3.05;52.05
77047;BME280;65977;56.380;44.022;2023-02-02T09:20:06;100384.22;;;3.04;52.02
77047;BME280;65977;56.380;44.022;2023-02-02T09:22:32;100395.53;;;3.19;51.92
77047;BME280;65977;56.380;44.022;2023-02-02T09:24:58;100393.16;;;3.30;51.42
77047;BME280;65977;56.380;44.022;2023-02-02T09:27:23;100388.13;;;3.41;51.14
77047;BME280;65977;56.380;44.022;2023-02-02T09:29:49;100391.63;;;3.56;51.12
77047;BME280;65977;56.380;44.022;2023-02-02T09:32:17;100389.88;;;3.70;50.62
77047;BME280;65977;56.380;44.022;2023-02-02T09:34:43;100387.41;;;3.81;50.56
77047;BME280;65977;56.380;44.022;2023-02-02T09:37:08;100389.78;;;4.00;50.27
77047;BME280;65977;56.380;44.022;2023-02-02T09:39:34;100384.81;;;4.24;49.71
77047;BME280;65977;56.380;44.022;2023-02-02T09:44:50;100385.38;;;5.09;48.28
77047;BME280;65977;56.380;44.022;2023-02-02T09:47:24;100383.56;;;5.36;47.81
77047;BME280;65977;56.380;44.022;2023-02-02T09:50:37;100375.31;;;5.67;46.81
77047;BME280;65977;56.380;44.022;2023-02-02T09:53:04;100379.28;;;6.11;45.55
77047;BME280;65977;56.380;44.022;2023-02-02T09:55:41;100378.63;;;6.32;44.28
77047;BME280;65977;56.380;44.022;2023-02-02T09:58:29;100389.50;;;6.52;44.74
77047;BME280;65977;56.380;44.022;2023-02-02T10:06:47;100384.91;;;6.66;44.29
77047;BME280;65977;56.380;44.022;2023-02-02T10:09:33;100381.22;;;6.69;44.01
77047;BME280;65977;56.380;44.022;2023-02-02T10:15:32;100384.75;;;6.57;43.23
77047;BME280;65977;56.380;44.022;2023-02-02T10:20:58;100384.66;;;5.71;44.45
77047;BME280;65977;56.380;44.022;2023-02-02T10:23:28;100380.13;;;5.36;45.15
77047;BME280;65977;56.380;44.022;2023-02-02T10:25:57;100393.03;;;5.12;45.66
77047;BME280;65977;56.380;44.022;2023-02-02T10:28:40;100396.72;;;4.83;45.36
77047;BME280;65977;56.380;44.022;2023-02-02T10:31:15;100394.75;;;4.60;46.54
77047;BME280;65977;56.380;44.022;2023-02-02T10:33:48;100394.31;;;4.39;46.72
77047;BME280;65977;56.380;44.022;2023-02-02T10:36:49;100410.50;;;4.31;47.03
77047;BME280;65977;56.380;44.022;2023-02-02T10:39:30;100397.41;;;4.17;47.33
77047;BME280;65977;56.380;44.022;2023-02-02T10:44:58;100394.72;;;3.91;47.85
77047;BME280;65977;56.380;44.022;2023-02-02T10:47:27;100399.19;;;3.74;47.95
77047;BME280;65977;56.380;44.022;2023-02-02T10:52:37;100390.22;;;3.50;48.48
77047;BME280;65977;56.380;44.022;2023-02-02T10:55:27;100399.41;;;3.42;48.32
77047;BME280;65977;56.380;44.022;2023-02-02T10:58:13;100391.00;;;3.37;48.54
77047;BME280;65977;56.380;44.022;2023-02-02T11:00:52;100403.22;;;3.36;49.32
77047;BME280;65977;56.380;44.022;2023-02-02T11:03:21;100395.50;;;3.35;48.98
77047;BME280;65977;56.380;44.022;2023-02-02T11:05:48;100394.75;;;3.33;49.20
77047;BME280;65977;56.380;44.022;2023-02-02T11:08:40;100408.81;;;3.30;48.98
77047;BME280;65977;56.380;44.022;2023-02-02T11:13:48;100420.63;;;3.22;49.12
77047;BME280;65977;56.380;44.022;2023-02-02T11:18:45;100408.59;;;3.19;49.16
77047;BME280;65977;56.380;44.022;2023-02-02T11:26:42;100402.19;;;3.39;49.54
77047;BME280;65977;56.380;44.022;2023-02-02T11:31:57;100418.66;;;3.55;48.87
77047;BME280;65977;56.380;44.022;2023-02-02T11:34:25;100410.28;;;3.64;48.89
77047;BME280;65977;56.380;44.022;2023-02-02T11:42:49;100421.78;;;3.75;48.73
77047;BME280;65977;56.380;44.022;2023-02-02T11:45:27;100419.63;;;3.82;48.90
77047;BME280;65977;56.380;44.022;2023-02-02T11:48:00;100428.66;;;3.76;48.09
77047;BME280;65977;56.380;44.022;2023-02-02T11:50:27;100432.50;;;3.71;48.61
77047;BME280;65977;56.380;44.022;2023-02-02T11:52:53;100421.56;;;3.64;48.38
77047;BME280;65977;56.380;44.022;2023-02-02T11:55:26;100432.03;;;3.64;48.53
77047;BME280;65977;56.380;44.022;2023-02-02T11:58:18;100443.09;;;3.54;48.96
77047;BME280;65977;56.380;44.022;2023-02-02T12:00:48;100446.88;;;3.34;49.07
77047;BME280;65977;56.380;44.022;2023-02-02T12:03:30;100434.88;;;3.16;49.62
77047;BME280;65977;56.380;44.022;2023-02-02T12:05:56;100448.00;;;3.14;49.38
77047;BME280;65977;56.380;44.022;2023-02-02T12:08:22;100447.34;;;3.11;49.72
77047;BME280;65977;56.380;44.022;2023-02-02T12:11:00;100458.72;;;3.10;49.64
77047;BME280;65977;56.380;44.022;2023-02-02T12:27:49;100459.34;;;2.84;50.50
77047;BME280;65977;56.380;44.022;2023-02-02T12:30:36;100461.94;;;2.68;51.37
77047;BME280;65977;56.380;44.022;2023-02-02T12:35:57;100462.44;;;2.59;51.22
77047;BME280;65977;56.380;44.022;2023-02-02T12:38:47;100463.34;;;2.42;51.59
77047;BME280;65977;56.380;44.022;2023-02-02T12:44:24;100456.59;;;2.23;52.06
77047;BME280;65977;56.380;44.022;2023-02-02T12:50:02;100471.19;;;2.10;52.48
77047;BME280;65977;56.380;44.022;2023-02-02T13:01:04;100487.63;;;1.77;53.33
77047;BME280;65977;56.380;44.022;2023-02-02T13:09:13;100513.66;;;1.60;54.08
77047;BME280;65977;56.380;44.022;2023-02-02T13:11:45;100498.41;;;1.53;54.16
77047;BME280;65977;56.380;44.022;2023-02-02T13:14:28;100516.03;;;1.48;54.48
77047;BME280;65977;56.380;44.022;2023-02-02T13:16:59;100515.41;;;1.43;54.58
77047;BME280;65977;56.380;44.022;2023-02-02T13:19:45;100526.66;;;1.43;55.29
77047;BME280;65977;56.380;44.022;2023-02-02T13:22:18;100518.31;;;1.37;54.29
77047;BME280;65977;56.380;44.022;2023-02-02T13:24:48;100531.88;;;1.43;54.22
77047;BME280;65977;56.380;44.022;2023-02-02T13:27:19;100530.97;;;1.44;54.20
77047;BME280;65977;56.380;44.022;2023-02-02T13:30:01;100526.75;;;1.42;54.91
77047;BME280;65977;56.380;44.022;2023-02-02T13:32:35;100525.28;;;1.36;54.78
77047;BME280;65977;56.380;44.022;2023-02-02T13:35:20;100530.50;;;1.36;55.52
77047;BME280;65977;56.380;44.022;2023-02-02T13:38:01;100528.88;;;1.34;55.05
77047;BME280;65977;56.380;44.022;2023-02-02T13:40:28;100532.38;;;1.33;54.43
77047;BME280;65977;56.380;44.022;2023-02-02T13:59:34;100505.91;;;1.24;55.67
77047;BME280;65977;56.380;44.022;2023-02-02T14:04:59;100512.16;;;1.20;55.74
77047;BME280;65977;56.380;44.022;2023-02-02T14:07:38;100519.28;;;1.17;56.47
77047;BME280;65977;56.380;44.022;2023-02-02T14:10:23;100517.66;;;1.14;56.08
77047;BME280;65977;56.380;44.022;2023-02-02T14:12:50;100514.41;;;1.09;56.78
77047;BME280;65977;56.380;44.022;2023-02-02T14:15:17;100509.22;;;1.09;56.55
77047;BME280;65977;56.380;44.022;2023-02-02T14:20:41;100529.28;;;1.07;56.92
77047;BME280;65977;56.380;44.022;2023-02-02T14:26:18;100522.59;;;1.02;57.04
77047;BME280;65977;56.380;44.022;2023-02-02T14:28:47;100525.38;;;0.99;57.10
77047;BME280;65977;56.380;44.022;2023-02-02T14:31:29;100527.03;;;1.00;57.00
77047;BME280;65977;56.380;44.022;2023-02-02T14:34:36;100538.28;;;1.00;57.35
77047;BME280;65977;56.380;44.022;2023-02-02T15:03:54;100548.69;;;1.00;57.72
77047;BME280;65977;56.380;44.022;2023-02-02T15:06:35;100552.19;;;0.99;58.27
77047;BME280;65977;56.380;44.022;2023-02-02T15:14:35;100541.78;;;0.99;57.22
77047;BME280;65977;56.380;44.022;2023-02-02T15:17:18;100541.88;;;0.98;57.43
77047;BME280;65977;56.380;44.022;2023-02-02T15:22:42;100540.38;;;0.92;57.30
77047;BME280;65977;56.380;44.022;2023-02-02T15:25:34;100558.72;;;0.89;57.94
77047;BME280;65977;56.380;44.022;2023-02-02T15:28:22;100561.41;;;0.88;58.24
77047;BME280;65977;56.380;44.022;2023-02-02T15:33:43;100565.13;;;0.82;57.66
77047;BME280;65977;56.380;44.022;2023-02-02T15:36:15;100567.06;;;0.79;58.38
77047;BME280;65977;56.380;44.022;2023-02-02T15:38:43;100573.25;;;0.76;58.16
77047;BME280;65977;56.380;44.022;2023-02-02T15:41:31;100576.88;;;0.72;58.51
77047;BME280;65977;56.380;44.022;2023-02-02T15:43:59;100575.88;;;0.75;57.91